SWR2066 LSZH-LPPR
Flight info
| Callsign | SWR2066 |
|---|---|
| Flight time | 2h 14m |
| Altitude | 35000 |
| Route | VEBIT T50 ROTOS Z669 ULMES DCT VADAR DCT NINTU DCT MEBAK DCT REPSI DCT LERGA DCT MINSO/N0446F370 DCT NARAK DCT AGN DCT LATEK DCT PPN DCT MIRPO DCT DGO DCT NEA DCT ZMR DCT ADORO DCT INKIT |
| Aircraft | A321/M-SDE3FGHIRWY/LB1 |
Departure
| Time | 2026-05-01 12:07 |
|---|---|
| Airport | Zürich Airport (LSZH) |
Arrival
| Time | 2026-05-01 14:21 |
|---|---|
| Airport | Francisco de Sá Carneiro Airport (LPPR) |
| Time | Latitude | Longitude | Altitude | Speed | Heading |
|---|---|---|---|---|---|
| 2026-05-01 11:41 | 47.46180 | 8.55492 | 1400 ft | 0 kts | 187° |
| 2026-05-01 11:57 | 47.46207 | 8.55498 | 1410 ft | 4 kts | 191° |
| 2026-05-01 11:57 | 47.46234 | 8.55498 | 1408 ft | 4 kts | 147° |
| 2026-05-01 11:57 | 47.46255 | 8.55469 | 1410 ft | 4 kts | 112° |
| 2026-05-01 11:58 | 47.46259 | 8.55448 | 1407 ft | 0 kts | 95° |
| 2026-05-01 11:59 | 47.46258 | 8.55465 | 1410 ft | 7 kts | 95° |
| 2026-05-01 11:59 | 47.46252 | 8.55542 | 1402 ft | 8 kts | 96° |
| 2026-05-01 12:00 | 47.46238 | 8.55735 | 1401 ft | 10 kts | 96° |
| 2026-05-01 12:00 | 47.46232 | 8.55819 | 1401 ft | 0 kts | 96° |
| 2026-05-01 12:00 | 47.46224 | 8.55929 | 1408 ft | 15 kts | 99° |
| 2026-05-01 12:01 | 47.46172 | 8.56044 | 1405 ft | 12 kts | 136° |
| 2026-05-01 12:01 | 47.46117 | 8.56120 | 1406 ft | 11 kts | 137° |
| 2026-05-01 12:01 | 47.46053 | 8.56207 | 1405 ft | 14 kts | 137° |
| 2026-05-01 12:01 | 47.45981 | 8.56305 | 1412 ft | 14 kts | 138° |
| 2026-05-01 12:02 | 47.45909 | 8.56401 | 1412 ft | 12 kts | 137° |
| 2026-05-01 12:02 | 47.45839 | 8.56496 | 1405 ft | 14 kts | 138° |
| 2026-05-01 12:02 | 47.45795 | 8.56627 | 1408 ft | 16 kts | 97° |
| 2026-05-01 12:02 | 47.45782 | 8.56804 | 1401 ft | 19 kts | 96° |
| 2026-05-01 12:03 | 47.45771 | 8.56954 | 1399 ft | 9 kts | 97° |
| 2026-05-01 12:03 | 47.45756 | 8.57008 | 1401 ft | 0 kts | 132° |
| 2026-05-01 12:05 | 47.45707 | 8.57034 | 1406 ft | 11 kts | 177° |
| 2026-05-01 12:05 | 47.45664 | 8.56987 | 1406 ft | 4 kts | 267° |
| 2026-05-01 12:06 | 47.45664 | 8.56985 | 1406 ft | 0 kts | 273° |
| 2026-05-01 12:06 | 47.45667 | 8.56912 | 1402 ft | 34 kts | 274° |
| 2026-05-01 12:07 | 47.45720 | 8.56162 | 1409 ft | 114 kts | 276° |
| 2026-05-01 12:07 | 47.45834 | 8.54627 | 1525 ft | 173 kts | 276° |
| 2026-05-01 12:07 | 47.45968 | 8.52806 | 2204 ft | 177 kts | 276° |
| 2026-05-01 12:07 | 47.46092 | 8.51045 | 3169 ft | 177 kts | 276° |
| 2026-05-01 12:08 | 47.46193 | 8.49078 | 3636 ft | 209 kts | 268° |
| 2026-05-01 12:08 | 47.45800 | 8.46880 | 4144 ft | 235 kts | 238° |
| 2026-05-01 12:08 | 47.44533 | 8.45281 | 4886 ft | 247 kts | 211° |
| 2026-05-01 12:08 | 47.43133 | 8.43792 | 5815 ft | 250 kts | 228° |
| 2026-05-01 12:09 | 47.42027 | 8.41782 | 6577 ft | 255 kts | 234° |
| 2026-05-01 12:09 | 47.41018 | 8.39599 | 6814 ft | 265 kts | 238° |
| 2026-05-01 12:09 | 47.40031 | 8.37236 | 6545 ft | 273 kts | 240° |
| 2026-05-01 12:09 | 47.39081 | 8.34816 | 6292 ft | 273 kts | 241° |
| 2026-05-01 12:10 | 47.38180 | 8.32363 | 6059 ft | 271 kts | 242° |
| 2026-05-01 12:10 | 47.36429 | 8.27465 | 5948 ft | 270 kts | 243° |
| 2026-05-01 12:10 | 47.35561 | 8.25025 | 5724 ft | 269 kts | 243° |
| 2026-05-01 12:11 | 47.33824 | 8.20145 | 5673 ft | 269 kts | 243° |
| 2026-05-01 12:11 | 47.32954 | 8.17701 | 5679 ft | 269 kts | 243° |
| 2026-05-01 12:11 | 47.32099 | 8.15300 | 5673 ft | 269 kts | 243° |
| 2026-05-01 12:12 | 47.31230 | 8.12859 | 5678 ft | 269 kts | 243° |
| 2026-05-01 12:12 | 47.30364 | 8.10422 | 5671 ft | 268 kts | 243° |
| 2026-05-01 12:12 | 47.29498 | 8.07987 | 5681 ft | 268 kts | 243° |
| 2026-05-01 12:12 | 47.28632 | 8.05557 | 5676 ft | 268 kts | 243° |
| 2026-05-01 12:13 | 47.27741 | 8.03136 | 5668 ft | 269 kts | 238° |
| 2026-05-01 12:13 | 47.26494 | 8.01099 | 5799 ft | 273 kts | 215° |
| 2026-05-01 12:13 | 47.24748 | 7.99893 | 6561 ft | 282 kts | 200° |
| 2026-05-01 12:13 | 47.22865 | 7.99127 | 7847 ft | 279 kts | 193° |
| 2026-05-01 12:14 | 47.20959 | 7.98577 | 9073 ft | 280 kts | 191° |
| 2026-05-01 12:14 | 47.19023 | 7.98112 | 10135 ft | 284 kts | 190° |
| 2026-05-01 12:14 | 47.17005 | 7.97645 | 10797 ft | 305 kts | 190° |
| 2026-05-01 12:14 | 47.14850 | 7.97124 | 11454 ft | 321 kts | 190° |
| 2026-05-01 12:15 | 47.12626 | 7.96555 | 12345 ft | 328 kts | 191° |
| 2026-05-01 12:15 | 47.10362 | 7.95948 | 13279 ft | 333 kts | 191° |
| 2026-05-01 12:15 | 47.08070 | 7.95316 | 14197 ft | 338 kts | 191° |
| 2026-05-01 12:15 | 47.05742 | 7.94666 | 15105 ft | 343 kts | 192° |
| 2026-05-01 12:16 | 47.03378 | 7.94004 | 15978 ft | 348 kts | 192° |
| 2026-05-01 12:16 | 47.00995 | 7.93336 | 16816 ft | 353 kts | 192° |
| 2026-05-01 12:16 | 46.98563 | 7.92656 | 17620 ft | 359 kts | 192° |
| 2026-05-01 12:16 | 46.96095 | 7.91968 | 18426 ft | 363 kts | 191° |
| 2026-05-01 12:17 | 46.93594 | 7.91270 | 19225 ft | 368 kts | 191° |
| 2026-05-01 12:17 | 46.91061 | 7.90564 | 19900 ft | 375 kts | 191° |
| 2026-05-01 12:17 | 46.88459 | 7.89838 | 20468 ft | 384 kts | 191° |
| 2026-05-01 12:17 | 46.85817 | 7.89101 | 21110 ft | 390 kts | 191° |
| 2026-05-01 12:18 | 46.83141 | 7.88354 | 21750 ft | 394 kts | 191° |
| 2026-05-01 12:18 | 46.80433 | 7.87599 | 22376 ft | 398 kts | 191° |
| 2026-05-01 12:18 | 46.77695 | 7.86837 | 22947 ft | 403 kts | 191° |
| 2026-05-01 12:18 | 46.74924 | 7.86069 | 23459 ft | 408 kts | 191° |
| 2026-05-01 12:19 | 46.72130 | 7.85296 | 24019 ft | 411 kts | 191° |
| 2026-05-01 12:19 | 46.69309 | 7.84518 | 24630 ft | 414 kts | 191° |
| 2026-05-01 12:19 | 46.66478 | 7.83737 | 25246 ft | 416 kts | 191° |
| 2026-05-01 12:19 | 46.63620 | 7.82951 | 25754 ft | 420 kts | 191° |
| 2026-05-01 12:20 | 46.60775 | 7.81902 | 26178 ft | 423 kts | 199° |
| 2026-05-01 12:20 | 46.58075 | 7.80155 | 26486 ft | 428 kts | 211° |
| 2026-05-01 12:20 | 46.55684 | 7.77578 | 26827 ft | 430 kts | 224° |
| 2026-05-01 12:20 | 46.53779 | 7.74223 | 27239 ft | 432 kts | 238° |
| 2026-05-01 12:21 | 46.52351 | 7.70381 | 27577 ft | 434 kts | 245° |
| 2026-05-01 12:21 | 46.51139 | 7.66346 | 27958 ft | 437 kts | 248° |
| 2026-05-01 12:21 | 46.50040 | 7.62228 | 28309 ft | 439 kts | 250° |
| 2026-05-01 12:21 | 46.49163 | 7.57979 | 28607 ft | 442 kts | 258° |
| 2026-05-01 12:22 | 46.48739 | 7.53565 | 28985 ft | 443 kts | 267° |
| 2026-05-01 12:22 | 46.48871 | 7.49100 | 29322 ft | 445 kts | 278° |
| 2026-05-01 12:22 | 46.49480 | 7.44681 | 29570 ft | 448 kts | 284° |
| 2026-05-01 12:22 | 46.50374 | 7.40337 | 29933 ft | 450 kts | 288° |
| 2026-05-01 12:23 | 46.51404 | 7.36059 | 30318 ft | 450 kts | 290° |
| 2026-05-01 12:23 | 46.52487 | 7.31779 | 30590 ft | 453 kts | 290° |
| 2026-05-01 12:23 | 46.53576 | 7.27474 | 30908 ft | 454 kts | 290° |
| 2026-05-01 12:23 | 46.54646 | 7.23152 | 31274 ft | 454 kts | 289° |
| 2026-05-01 12:24 | 46.55694 | 7.18820 | 31649 ft | 454 kts | 289° |
| 2026-05-01 12:24 | 46.56718 | 7.14495 | 32058 ft | 453 kts | 288° |
| 2026-05-01 12:24 | 46.57729 | 7.10167 | 32497 ft | 451 kts | 288° |
| 2026-05-01 12:24 | 46.58726 | 7.05863 | 33026 ft | 448 kts | 288° |
| 2026-05-01 12:25 | 46.59713 | 7.01583 | 33547 ft | 445 kts | 288° |
| 2026-05-01 12:25 | 46.61670 | 6.93080 | 34335 ft | 443 kts | 288° |
| 2026-05-01 12:25 | 46.62649 | 6.88820 | 34701 ft | 443 kts | 288° |
| 2026-05-01 12:26 | 46.63507 | 6.84528 | 35061 ft | 442 kts | 282° |
| 2026-05-01 12:26 | 46.63914 | 6.75678 | 35805 ft | 439 kts | 264° |
| 2026-05-01 12:26 | 46.63348 | 6.71316 | 36125 ft | 439 kts | 253° |
| 2026-05-01 12:27 | 46.62248 | 6.67183 | 36326 ft | 440 kts | 244° |
| 2026-05-01 12:27 | 46.59292 | 6.59461 | 35835 ft | 437 kts | 239° |
| 2026-05-01 12:28 | 46.56069 | 6.51970 | 35335 ft | 437 kts | 238° |
| 2026-05-01 12:28 | 46.54451 | 6.48236 | 35078 ft | 437 kts | 238° |
| 2026-05-01 12:28 | 46.51262 | 6.40782 | 34655 ft | 438 kts | 239° |
| 2026-05-01 12:29 | 46.49658 | 6.36995 | 34794 ft | 441 kts | 239° |
| 2026-05-01 12:29 | 46.48057 | 6.33202 | 35149 ft | 441 kts | 239° |
| 2026-05-01 12:29 | 46.44854 | 6.25617 | 35879 ft | 439 kts | 239° |
| 2026-05-01 12:30 | 46.41670 | 6.18094 | 36535 ft | 438 kts | 239° |
| 2026-05-01 12:30 | 46.40075 | 6.14335 | 36845 ft | 438 kts | 239° |
| 2026-05-01 12:30 | 46.38473 | 6.10568 | 36986 ft | 440 kts | 239° |
| 2026-05-01 12:31 | 46.36865 | 6.06790 | 36999 ft | 441 kts | 238° |
| 2026-05-01 12:31 | 46.33630 | 5.99208 | 36998 ft | 443 kts | 238° |
| 2026-05-01 12:32 | 46.30385 | 5.91624 | 36999 ft | 443 kts | 238° |
| 2026-05-01 12:32 | 46.25508 | 5.80261 | 37001 ft | 444 kts | 238° |
| 2026-05-01 12:33 | 46.22250 | 5.72700 | 37000 ft | 442 kts | 238° |
| 2026-05-01 12:33 | 46.19003 | 5.65179 | 37000 ft | 442 kts | 238° |
| 2026-05-01 12:34 | 46.15749 | 5.57666 | 37001 ft | 441 kts | 238° |
| 2026-05-01 12:34 | 46.12392 | 5.50275 | 36999 ft | 440 kts | 236° |
| 2026-05-01 12:35 | 46.08902 | 5.43038 | 37001 ft | 440 kts | 235° |
| 2026-05-01 12:35 | 46.05400 | 5.35836 | 37000 ft | 438 kts | 235° |
| 2026-05-01 12:36 | 46.01920 | 5.28649 | 37000 ft | 438 kts | 236° |
| 2026-05-01 12:36 | 45.98447 | 5.21465 | 37000 ft | 438 kts | 236° |
| 2026-05-01 12:37 | 45.94968 | 5.14280 | 37000 ft | 438 kts | 235° |
| 2026-05-01 12:37 | 45.92071 | 5.08313 | 37000 ft | 438 kts | 235° |
| 2026-05-01 12:38 | 45.88589 | 5.01156 | 37000 ft | 438 kts | 235° |
| 2026-05-01 12:38 | 45.84530 | 4.92839 | 37000 ft | 438 kts | 235° |
| 2026-05-01 12:39 | 45.81601 | 4.86853 | 37000 ft | 438 kts | 235° |
| 2026-05-01 12:39 | 45.78104 | 4.79722 | 37000 ft | 437 kts | 235° |
| 2026-05-01 12:40 | 45.74605 | 4.72604 | 37000 ft | 437 kts | 235° |
| 2026-05-01 12:40 | 45.71099 | 4.65492 | 36999 ft | 438 kts | 235° |
| 2026-05-01 12:41 | 45.67581 | 4.58368 | 36999 ft | 439 kts | 235° |
| 2026-05-01 12:41 | 45.64072 | 4.51281 | 37000 ft | 440 kts | 235° |
| 2026-05-01 12:42 | 45.60532 | 4.44150 | 37000 ft | 440 kts | 235° |
| 2026-05-01 12:42 | 45.56991 | 4.37033 | 37000 ft | 439 kts | 235° |
| 2026-05-01 12:43 | 45.53447 | 4.29930 | 37000 ft | 439 kts | 235° |
| 2026-05-01 12:43 | 45.49910 | 4.22859 | 37000 ft | 438 kts | 235° |
| 2026-05-01 12:44 | 45.46364 | 4.15794 | 36999 ft | 438 kts | 234° |
| 2026-05-01 12:45 | 45.39238 | 4.01650 | 37000 ft | 441 kts | 234° |
| 2026-05-01 12:45 | 45.35655 | 3.94564 | 37000 ft | 441 kts | 234° |
| 2026-05-01 12:46 | 45.32077 | 3.87504 | 37000 ft | 441 kts | 234° |
| 2026-05-01 12:46 | 45.28475 | 3.80417 | 37000 ft | 441 kts | 234° |
| 2026-05-01 12:47 | 45.24890 | 3.73344 | 37000 ft | 442 kts | 235° |
| 2026-05-01 12:47 | 45.21361 | 3.66199 | 37000 ft | 442 kts | 236° |
| 2026-05-01 12:48 | 45.17854 | 3.59054 | 37000 ft | 442 kts | 235° |
| 2026-05-01 12:48 | 45.14341 | 3.51927 | 37000 ft | 440 kts | 235° |
| 2026-05-01 12:49 | 45.10833 | 3.44841 | 37000 ft | 439 kts | 235° |
| 2026-05-01 12:49 | 45.07317 | 3.37764 | 37000 ft | 441 kts | 235° |
| 2026-05-01 12:50 | 45.03782 | 3.30667 | 36999 ft | 442 kts | 235° |
| 2026-05-01 12:50 | 45.00235 | 3.23563 | 37001 ft | 443 kts | 235° |
| 2026-05-01 12:51 | 44.96687 | 3.16475 | 37001 ft | 441 kts | 235° |
| 2026-05-01 12:52 | 44.91375 | 3.05893 | 37001 ft | 440 kts | 235° |
| 2026-05-01 12:52 | 44.86070 | 2.95365 | 37000 ft | 440 kts | 235° |
| 2026-05-01 12:53 | 44.80945 | 2.84618 | 37000 ft | 441 kts | 237° |
| 2026-05-01 12:54 | 44.77633 | 2.77346 | 37000 ft | 441 kts | 238° |
| 2026-05-01 12:54 | 44.72648 | 2.66492 | 37000 ft | 440 kts | 237° |
| 2026-05-01 12:55 | 44.67644 | 2.55708 | 37001 ft | 438 kts | 237° |
| 2026-05-01 12:56 | 44.64305 | 2.48541 | 37001 ft | 438 kts | 237° |
| 2026-05-01 12:56 | 44.60967 | 2.41391 | 37000 ft | 438 kts | 237° |
| 2026-05-01 12:57 | 44.57625 | 2.34248 | 37000 ft | 438 kts | 237° |
| 2026-05-01 12:57 | 44.52605 | 2.23555 | 37000 ft | 437 kts | 237° |
| 2026-05-01 12:58 | 44.49257 | 2.16443 | 37000 ft | 437 kts | 237° |
| 2026-05-01 12:59 | 44.44224 | 2.05788 | 37000 ft | 437 kts | 237° |
| 2026-05-01 12:59 | 44.39184 | 1.95155 | 37000 ft | 437 kts | 237° |
| 2026-05-01 13:00 | 44.34132 | 1.84538 | 37000 ft | 437 kts | 237° |
| 2026-05-01 13:01 | 44.29084 | 1.73942 | 37000 ft | 437 kts | 237° |
| 2026-05-01 13:02 | 44.24160 | 1.63250 | 37000 ft | 436 kts | 238° |
| 2026-05-01 13:07 | 43.87764 | 0.85805 | 37001 ft | 436 kts | 230° |
| 2026-05-01 13:08 | 43.83794 | 0.79459 | 37000 ft | 436 kts | 229° |
| 2026-05-01 13:08 | 43.79741 | 0.73212 | 37000 ft | 436 kts | 228° |
| 2026-05-01 13:09 | 43.75682 | 0.66993 | 37000 ft | 436 kts | 228° |
| 2026-05-01 13:09 | 43.71623 | 0.60765 | 37000 ft | 436 kts | 228° |
| 2026-05-01 13:10 | 43.67571 | 0.54545 | 37000 ft | 436 kts | 228° |
| 2026-05-01 13:10 | 43.63513 | 0.48328 | 37000 ft | 436 kts | 228° |
| 2026-05-01 13:11 | 43.59451 | 0.42117 | 37000 ft | 436 kts | 228° |
| 2026-05-01 13:11 | 43.55382 | 0.35910 | 37000 ft | 436 kts | 228° |
| 2026-05-01 13:12 | 43.51317 | 0.29725 | 37000 ft | 436 kts | 228° |
| 2026-05-01 13:12 | 43.47244 | 0.23538 | 37000 ft | 436 kts | 228° |
| 2026-05-01 13:13 | 43.43167 | 0.17360 | 37000 ft | 436 kts | 228° |
| 2026-05-01 13:13 | 43.39087 | 0.11190 | 37000 ft | 436 kts | 228° |
| 2026-05-01 13:14 | 43.35006 | 0.05033 | 37000 ft | 436 kts | 228° |
| 2026-05-01 13:14 | 43.30922 | -0.01115 | 37000 ft | 436 kts | 228° |
| 2026-05-01 13:15 | 43.26852 | -0.07231 | 37000 ft | 437 kts | 228° |
| 2026-05-01 13:15 | 43.22747 | -0.13385 | 37000 ft | 437 kts | 228° |
| 2026-05-01 13:16 | 43.18644 | -0.19522 | 37000 ft | 437 kts | 228° |
| 2026-05-01 13:16 | 43.14537 | -0.25654 | 37000 ft | 436 kts | 228° |
| 2026-05-01 13:17 | 43.06318 | -0.37882 | 37000 ft | 439 kts | 228° |
| 2026-05-01 13:18 | 43.00095 | -0.47109 | 36998 ft | 441 kts | 227° |
| 2026-05-01 13:18 | 42.95912 | -0.53292 | 36999 ft | 444 kts | 227° |
| 2026-05-01 13:19 | 42.91718 | -0.59480 | 36999 ft | 442 kts | 227° |
| 2026-05-01 13:19 | 42.88154 | -0.66259 | 36999 ft | 441 kts | 244° |
| 2026-05-01 13:20 | 42.87051 | -0.70155 | 36999 ft | 442 kts | 255° |
| 2026-05-01 13:20 | 42.85720 | -0.78357 | 37001 ft | 444 kts | 259° |
| 2026-05-01 13:21 | 42.84157 | -0.90762 | 37000 ft | 442 kts | 260° |
| 2026-05-01 13:21 | 42.83104 | -0.99003 | 36999 ft | 440 kts | 260° |
| 2026-05-01 13:22 | 42.82025 | -1.07147 | 37001 ft | 439 kts | 259° |
| 2026-05-01 13:22 | 42.80925 | -1.15312 | 36999 ft | 438 kts | 259° |
| 2026-05-01 13:23 | 42.79817 | -1.23485 | 37002 ft | 439 kts | 259° |
| 2026-05-01 13:23 | 42.78707 | -1.31641 | 37001 ft | 438 kts | 259° |
| 2026-05-01 13:24 | 42.77593 | -1.39783 | 37000 ft | 437 kts | 259° |
| 2026-05-01 13:25 | 42.76106 | -1.50581 | 36999 ft | 436 kts | 259° |
| 2026-05-01 13:25 | 42.74981 | -1.58702 | 37001 ft | 437 kts | 259° |
| 2026-05-01 13:26 | 42.73852 | -1.66804 | 37000 ft | 436 kts | 259° |
| 2026-05-01 13:26 | 42.72340 | -1.74798 | 37001 ft | 437 kts | 254° |
| 2026-05-01 13:27 | 42.70593 | -1.82713 | 37000 ft | 436 kts | 253° |
| 2026-05-01 13:27 | 42.67905 | -1.94519 | 37000 ft | 436 kts | 253° |
| 2026-05-01 13:28 | 42.65215 | -2.06320 | 37000 ft | 436 kts | 253° |
| 2026-05-01 13:29 | 42.61566 | -2.22028 | 37000 ft | 436 kts | 252° |
| 2026-05-01 13:31 | 42.55848 | -2.45443 | 37000 ft | 437 kts | 252° |
| 2026-05-01 13:32 | 42.51060 | -2.64947 | 37000 ft | 436 kts | 252° |
| 2026-05-01 13:33 | 42.46242 | -2.84410 | 37000 ft | 436 kts | 251° |
| 2026-05-01 13:34 | 42.41473 | -2.99511 | 36999 ft | 437 kts | 245° |
| 2026-05-01 13:35 | 42.37630 | -3.10723 | 37000 ft | 439 kts | 245° |
| 2026-05-01 13:36 | 42.33769 | -3.21969 | 37000 ft | 439 kts | 245° |
| 2026-05-01 13:36 | 42.29926 | -3.33149 | 37000 ft | 440 kts | 245° |
| 2026-05-01 13:37 | 42.27341 | -3.40645 | 37000 ft | 440 kts | 245° |
| 2026-05-01 13:37 | 42.24753 | -3.48128 | 37001 ft | 440 kts | 245° |
| 2026-05-01 13:38 | 42.20867 | -3.59323 | 37000 ft | 439 kts | 245° |
| 2026-05-01 13:39 | 42.18274 | -3.66772 | 37000 ft | 438 kts | 245° |
| 2026-05-01 13:39 | 42.15678 | -3.74206 | 37000 ft | 438 kts | 245° |
| 2026-05-01 13:40 | 42.13077 | -3.81637 | 37000 ft | 438 kts | 245° |
| 2026-05-01 13:40 | 42.10473 | -3.89054 | 37000 ft | 438 kts | 245° |
| 2026-05-01 13:41 | 42.07869 | -3.96454 | 37000 ft | 438 kts | 245° |
| 2026-05-01 13:41 | 42.05257 | -4.03855 | 37000 ft | 438 kts | 245° |
| 2026-05-01 13:42 | 42.02651 | -4.11257 | 37000 ft | 438 kts | 245° |
| 2026-05-01 13:42 | 42.00213 | -4.18757 | 37000 ft | 438 kts | 247° |
| 2026-05-01 13:43 | 41.97853 | -4.26299 | 37000 ft | 438 kts | 247° |
| 2026-05-01 13:43 | 41.95485 | -4.33827 | 37000 ft | 437 kts | 247° |
| 2026-05-01 13:44 | 41.93109 | -4.41301 | 37000 ft | 437 kts | 247° |
| 2026-05-01 13:44 | 41.90694 | -4.48848 | 37000 ft | 437 kts | 247° |
| 2026-05-01 13:45 | 41.89338 | -4.53075 | 37000 ft | 437 kts | 247° |
| 2026-05-01 13:45 | 41.86932 | -4.60558 | 37000 ft | 437 kts | 247° |
| 2026-05-01 13:46 | 41.84519 | -4.68047 | 37000 ft | 437 kts | 247° |
| 2026-05-01 13:46 | 41.82117 | -4.75480 | 37000 ft | 437 kts | 247° |
| 2026-05-01 13:47 | 41.79696 | -4.82954 | 37000 ft | 437 kts | 246° |
| 2026-05-01 13:47 | 41.77266 | -4.90432 | 37000 ft | 437 kts | 246° |
| 2026-05-01 13:48 | 41.74834 | -4.97898 | 37000 ft | 437 kts | 246° |
| 2026-05-01 13:48 | 41.72397 | -5.05357 | 37000 ft | 437 kts | 246° |
| 2026-05-01 13:49 | 41.69955 | -5.12811 | 37000 ft | 437 kts | 246° |
| 2026-05-01 13:49 | 41.67510 | -5.20254 | 37000 ft | 437 kts | 246° |
| 2026-05-01 13:50 | 41.65059 | -5.27697 | 37000 ft | 437 kts | 246° |
| 2026-05-01 13:50 | 41.62606 | -5.35124 | 37000 ft | 437 kts | 246° |
| 2026-05-01 13:51 | 41.60147 | -5.42550 | 37000 ft | 437 kts | 246° |
| 2026-05-01 13:51 | 41.57686 | -5.49959 | 37000 ft | 436 kts | 246° |
| 2026-05-01 13:52 | 41.55222 | -5.57362 | 37000 ft | 436 kts | 246° |
| 2026-05-01 13:52 | 41.53016 | -5.64882 | 37004 ft | 435 kts | 257° |
| 2026-05-01 13:53 | 41.51753 | -5.72779 | 37000 ft | 435 kts | 259° |
| 2026-05-01 13:53 | 41.49999 | -5.84670 | 37000 ft | 436 kts | 259° |
| 2026-05-01 13:54 | 41.48832 | -5.92595 | 36999 ft | 436 kts | 259° |
| 2026-05-01 13:54 | 41.47658 | -6.00526 | 37000 ft | 436 kts | 259° |
| 2026-05-01 13:55 | 41.46479 | -6.08457 | 37000 ft | 436 kts | 259° |
| 2026-05-01 13:55 | 41.45302 | -6.16333 | 37000 ft | 436 kts | 259° |
| 2026-05-01 13:56 | 41.44105 | -6.24310 | 37000 ft | 436 kts | 259° |
| 2026-05-01 13:56 | 41.42918 | -6.32174 | 37000 ft | 435 kts | 258° |
| 2026-05-01 13:57 | 41.41914 | -6.38799 | 37000 ft | 436 kts | 258° |
| 2026-05-01 13:57 | 41.41119 | -6.44027 | 36864 ft | 431 kts | 258° |
| 2026-05-01 13:57 | 41.40530 | -6.47888 | 36622 ft | 419 kts | 258° |
| 2026-05-01 13:58 | 41.39957 | -6.51635 | 36377 ft | 408 kts | 258° |
| 2026-05-01 13:58 | 41.39397 | -6.55285 | 36125 ft | 397 kts | 258° |
| 2026-05-01 13:58 | 41.38851 | -6.58839 | 35888 ft | 387 kts | 258° |
| 2026-05-01 13:58 | 41.38318 | -6.62304 | 35644 ft | 377 kts | 258° |
| 2026-05-01 13:59 | 41.37798 | -6.65676 | 35412 ft | 368 kts | 258° |
| 2026-05-01 13:59 | 41.37284 | -6.68999 | 34935 ft | 366 kts | 258° |
| 2026-05-01 13:59 | 41.36774 | -6.72293 | 34552 ft | 361 kts | 258° |
| 2026-05-01 13:59 | 41.36271 | -6.75537 | 34179 ft | 356 kts | 258° |
| 2026-05-01 14:00 | 41.35771 | -6.78750 | 33803 ft | 353 kts | 258° |
| 2026-05-01 14:00 | 41.35276 | -6.81927 | 33452 ft | 349 kts | 258° |
| 2026-05-01 14:00 | 41.34784 | -6.85079 | 33117 ft | 346 kts | 258° |
| 2026-05-01 14:00 | 41.34296 | -6.88202 | 32788 ft | 343 kts | 258° |
| 2026-05-01 14:01 | 41.33811 | -6.91299 | 32501 ft | 341 kts | 258° |
| 2026-05-01 14:01 | 41.33328 | -6.94375 | 32230 ft | 339 kts | 258° |
| 2026-05-01 14:01 | 41.32847 | -6.97436 | 31974 ft | 337 kts | 258° |
| 2026-05-01 14:01 | 41.32367 | -7.00480 | 31749 ft | 335 kts | 258° |
| 2026-05-01 14:02 | 41.31890 | -7.03504 | 31546 ft | 333 kts | 258° |
| 2026-05-01 14:02 | 41.31415 | -7.06512 | 31366 ft | 331 kts | 258° |
| 2026-05-01 14:02 | 41.30941 | -7.09503 | 31184 ft | 330 kts | 258° |
| 2026-05-01 14:02 | 41.30468 | -7.12482 | 31013 ft | 329 kts | 258° |
| 2026-05-01 14:03 | 41.29996 | -7.15452 | 30859 ft | 328 kts | 258° |
| 2026-05-01 14:03 | 41.29524 | -7.18416 | 30753 ft | 328 kts | 258° |
| 2026-05-01 14:03 | 41.28579 | -7.24338 | 30585 ft | 326 kts | 258° |
| 2026-05-01 14:04 | 41.27637 | -7.30222 | 30446 ft | 325 kts | 258° |
| 2026-05-01 14:04 | 41.26852 | -7.35108 | 30362 ft | 325 kts | 258° |
| 2026-05-01 14:05 | 41.25750 | -7.41935 | 30242 ft | 323 kts | 258° |
| 2026-05-01 14:05 | 41.24807 | -7.47764 | 30136 ft | 323 kts | 258° |
| 2026-05-01 14:06 | 41.23861 | -7.53588 | 30079 ft | 322 kts | 258° |
| 2026-05-01 14:06 | 41.22916 | -7.59390 | 30020 ft | 321 kts | 258° |
| 2026-05-01 14:07 | 41.21967 | -7.65197 | 29989 ft | 321 kts | 258° |
| 2026-05-01 14:08 | 41.20547 | -7.73843 | 29877 ft | 320 kts | 258° |
| 2026-05-01 14:08 | 41.19597 | -7.79603 | 29768 ft | 318 kts | 258° |
| 2026-05-01 14:08 | 41.19123 | -7.82472 | 29628 ft | 319 kts | 258° |
| 2026-05-01 14:09 | 41.18649 | -7.85340 | 29492 ft | 318 kts | 258° |
| 2026-05-01 14:09 | 41.18149 | -7.88192 | 29365 ft | 317 kts | 253° |
| 2026-05-01 14:09 | 41.17387 | -7.90939 | 29167 ft | 317 kts | 247° |
| 2026-05-01 14:09 | 41.16487 | -7.93615 | 28754 ft | 316 kts | 245° |
| 2026-05-01 14:10 | 41.15568 | -7.96242 | 28401 ft | 313 kts | 245° |
| 2026-05-01 14:10 | 41.14656 | -7.98843 | 28045 ft | 310 kts | 245° |
| 2026-05-01 14:10 | 41.13753 | -8.01426 | 27676 ft | 307 kts | 245° |
| 2026-05-01 14:10 | 41.12861 | -8.03981 | 27309 ft | 305 kts | 245° |
| 2026-05-01 14:11 | 41.11974 | -8.06522 | 26964 ft | 302 kts | 245° |
| 2026-05-01 14:11 | 41.10226 | -8.11535 | 26134 ft | 301 kts | 245° |
| 2026-05-01 14:11 | 41.09333 | -8.14092 | 25372 ft | 312 kts | 245° |
| 2026-05-01 14:12 | 41.08404 | -8.16752 | 24567 ft | 323 kts | 245° |
| 2026-05-01 14:12 | 41.07773 | -8.18557 | 24010 ft | 331 kts | 245° |
| 2026-05-01 14:12 | 41.06788 | -8.21373 | 23117 ft | 342 kts | 245° |
| 2026-05-01 14:12 | 41.05774 | -8.24269 | 22179 ft | 352 kts | 245° |
| 2026-05-01 14:13 | 41.04728 | -8.27251 | 21145 ft | 361 kts | 245° |
| 2026-05-01 14:13 | 41.03655 | -8.30309 | 20050 ft | 371 kts | 245° |
| 2026-05-01 14:13 | 41.02715 | -8.33511 | 18758 ft | 375 kts | 254° |
| 2026-05-01 14:13 | 41.02095 | -8.36876 | 16961 ft | 378 kts | 258° |
| 2026-05-01 14:14 | 41.01556 | -8.40299 | 15013 ft | 382 kts | 258° |
| 2026-05-01 14:14 | 41.01021 | -8.43752 | 12928 ft | 385 kts | 258° |
| 2026-05-01 14:14 | 41.00476 | -8.47230 | 10903 ft | 384 kts | 258° |
| 2026-05-01 14:14 | 40.99959 | -8.50658 | 9018 ft | 376 kts | 259° |
| 2026-05-01 14:15 | 40.99464 | -8.54005 | 7142 ft | 366 kts | 259° |
| 2026-05-01 14:15 | 40.99094 | -8.57287 | 5504 ft | 353 kts | 270° |
| 2026-05-01 14:15 | 40.99631 | -8.60310 | 4575 ft | 325 kts | 297° |
| 2026-05-01 14:15 | 41.01039 | -8.62417 | 4083 ft | 293 kts | 327° |
| 2026-05-01 14:16 | 41.02860 | -8.63224 | 3716 ft | 266 kts | 352° |
| 2026-05-01 14:16 | 41.04620 | -8.63439 | 3446 ft | 243 kts | 354° |
| 2026-05-01 14:16 | 41.06239 | -8.63633 | 3128 ft | 227 kts | 353° |
| 2026-05-01 14:16 | 41.07767 | -8.63878 | 2812 ft | 215 kts | 351° |
| 2026-05-01 14:17 | 41.09173 | -8.64155 | 2761 ft | 193 kts | 349° |
| 2026-05-01 14:17 | 41.10460 | -8.64438 | 2775 ft | 181 kts | 349° |
| 2026-05-01 14:17 | 41.11644 | -8.64716 | 2502 ft | 166 kts | 348° |
| 2026-05-01 14:17 | 41.12741 | -8.64985 | 2214 ft | 155 kts | 347° |
| 2026-05-01 14:18 | 41.13764 | -8.65243 | 1986 ft | 145 kts | 347° |
| 2026-05-01 14:18 | 41.14717 | -8.65487 | 1782 ft | 135 kts | 347° |
| 2026-05-01 14:18 | 41.15628 | -8.65723 | 1627 ft | 133 kts | 347° |
| 2026-05-01 14:18 | 41.16228 | -8.65879 | 1521 ft | 133 kts | 346° |
| 2026-05-01 14:19 | 41.17439 | -8.66196 | 1303 ft | 132 kts | 347° |
| 2026-05-01 14:19 | 41.18340 | -8.66431 | 1107 ft | 132 kts | 347° |
| 2026-05-01 14:19 | 41.19237 | -8.66666 | 937 ft | 131 kts | 347° |
| 2026-05-01 14:19 | 41.20131 | -8.66899 | 777 ft | 131 kts | 347° |
| 2026-05-01 14:20 | 41.21024 | -8.67132 | 636 ft | 130 kts | 347° |
| 2026-05-01 14:20 | 41.22804 | -8.67605 | 364 ft | 130 kts | 348° |
| 2026-05-01 14:20 | 41.23689 | -8.67831 | 265 ft | 126 kts | 346° |
| 2026-05-01 14:21 | 41.24262 | -8.67981 | 252 ft | 61 kts | 348° |
| 2026-05-01 14:21 | 41.24663 | -8.68086 | 243 ft | 55 kts | 348° |
| 2026-05-01 14:21 | 41.24995 | -8.68167 | 227 ft | 47 kts | 356° |
| 2026-05-01 14:22 | 41.25224 | -8.68126 | 223 ft | 0 kts | 18° |
| 2026-05-01 14:22 | 41.25226 | -8.68125 | 222 ft | 3 kts | 18° |
| 2026-05-01 14:22 | 41.25267 | -8.68101 | 222 ft | 10 kts | 37° |
| 2026-05-01 14:23 | 41.25269 | -8.68025 | 222 ft | 9 kts | 147° |
| 2026-05-01 14:23 | 41.25211 | -8.68000 | 217 ft | 9 kts | 166° |
| 2026-05-01 14:23 | 41.25149 | -8.67981 | 219 ft | 9 kts | 169° |
| 2026-05-01 14:23 | 41.25097 | -8.67968 | 226 ft | 6 kts | 169° |
| 2026-05-01 14:24 | 41.25054 | -8.67957 | 226 ft | 13 kts | 169° |
| 2026-05-01 14:24 | 41.24949 | -8.67931 | 230 ft | 15 kts | 169° |
| 2026-05-01 14:24 | 41.24847 | -8.67884 | 235 ft | 15 kts | 154° |
| 2026-05-01 14:24 | 41.24751 | -8.67827 | 237 ft | 15 kts | 163° |
| 2026-05-01 14:25 | 41.24652 | -8.67796 | 240 ft | 15 kts | 168° |
| 2026-05-01 14:25 | 41.24548 | -8.67770 | 244 ft | 15 kts | 169° |
| 2026-05-01 14:25 | 41.24445 | -8.67745 | 247 ft | 15 kts | 169° |
| 2026-05-01 14:25 | 41.24335 | -8.67714 | 247 ft | 17 kts | 159° |
| 2026-05-01 14:26 | 41.24246 | -8.67601 | 249 ft | 18 kts | 123° |
| 2026-05-01 14:26 | 41.24032 | -8.67422 | 255 ft | 19 kts | 173° |
| 2026-05-01 14:26 | 41.23924 | -8.67479 | 259 ft | 14 kts | 204° |
| 2026-05-01 14:27 | 41.23871 | -8.67483 | 260 ft | 8 kts | 177° |
| 2026-05-01 14:27 | 41.23809 | -8.67473 | 261 ft | 10 kts | 171° |
| 2026-05-01 14:27 | 41.23745 | -8.67440 | 261 ft | 9 kts | 130° |
| 2026-05-01 14:28 | 41.23682 | -8.67273 | 261 ft | 12 kts | 86° |
| 2026-05-01 14:28 | 41.23683 | -8.67262 | 261 ft | 0 kts | 83° |